createdAt,value
2022-12-16T00:02:24.142Z,34.75
2022-12-16T00:04:57.912Z,38.70
2022-12-16T00:10:05.592Z,32.42
2022-12-16T00:12:38.347Z,30.20
2022-12-16T00:15:12.344Z,33.13
2022-12-16T00:17:45.056Z,30.15
2022-12-16T00:20:18.384Z,33.55
2022-12-16T00:22:51.140Z,29.50
2022-12-16T00:25:25.831Z,31.25
2022-12-16T00:28:00.445Z,36.73
2022-12-16T00:30:33.243Z,38.08
2022-12-16T00:33:06.918Z,33.33
2022-12-16T00:35:44.522Z,40.25
2022-12-16T00:38:14.354Z,36.38
2022-12-16T00:40:47.525Z,37.33
2022-12-16T00:43:20.628Z,45.23
2022-12-16T00:45:54.015Z,58.93
2022-12-16T00:48:26.685Z,52.73
2022-12-16T00:50:59.824Z,46.28
2022-12-16T00:53:33.302Z,43.25
2022-12-16T00:56:14.857Z,41.10
2022-12-16T00:58:47.984Z,44.03
2022-12-16T01:01:22.087Z,35.30
2022-12-16T01:03:58.211Z,37.13
2022-12-16T01:06:31.532Z,30.37
2022-12-16T01:09:04.437Z,27.37
2022-12-16T01:11:37.498Z,26.17
2022-12-16T01:14:10.409Z,30.62
2022-12-16T01:16:43.419Z,34.43
2022-12-16T01:19:16.307Z,41.95
2022-12-16T01:21:49.281Z,33.18
2022-12-16T01:26:55.511Z,37.40
2022-12-16T01:29:28.420Z,33.60
2022-12-16T01:32:01.523Z,37.15
2022-12-16T01:34:35.339Z,32.28
2022-12-16T01:37:08.233Z,39.25
2022-12-16T01:39:41.443Z,41.53
2022-12-16T01:42:23.015Z,45.35
2022-12-16T01:44:55.836Z,36.10
2022-12-16T01:47:32.421Z,45.12
2022-12-16T01:50:09.592Z,34.55
2022-12-16T01:52:46.471Z,41.02
2022-12-16T01:55:26.274Z,36.00
2022-12-16T01:58:12.781Z,33.23
2022-12-16T02:00:46.053Z,37.20
2022-12-16T02:03:19.010Z,34.30
2022-12-16T02:05:52.111Z,32.58
2022-12-16T02:08:28.349Z,39.00
2022-12-16T02:11:29.854Z,28.05
2022-12-16T02:14:13.447Z,33.67
2022-12-16T02:17:02.164Z,30.15
2022-12-16T02:19:39.620Z,40.45
2022-12-16T02:22:32.279Z,42.70
2022-12-16T02:25:45.935Z,36.00
2022-12-16T02:28:44.328Z,33.48
2022-12-16T02:31:57.371Z,29.77
2022-12-16T02:34:49.736Z,26.73
2022-12-16T02:37:40.261Z,22.85
2022-12-16T02:40:32.724Z,28.85
2022-12-16T02:43:16.180Z,27.30
2022-12-16T02:45:49.809Z,25.92
2022-12-16T02:48:22.585Z,24.47
2022-12-16T02:50:56.265Z,23.15
2022-12-16T02:53:29.616Z,25.60
2022-12-16T02:56:39.446Z,32.05
2022-12-16T02:59:41.440Z,34.38
2022-12-16T03:02:25.304Z,32.73
2022-12-16T03:05:05.824Z,27.25
2022-12-16T03:07:41.633Z,26.82
2022-12-16T03:10:18.186Z,31.17
2022-12-16T03:12:51.098Z,26.33
2022-12-16T03:15:27.309Z,25.10
2022-12-16T03:18:00.856Z,25.62
2022-12-16T03:20:53.254Z,30.02
2022-12-16T03:23:32.907Z,25.62
2022-12-16T03:26:13.369Z,28.47
2022-12-16T03:29:02.224Z,29.77
2022-12-16T03:31:52.024Z,32.08
2022-12-16T03:34:56.190Z,31.87
2022-12-16T03:37:34.004Z,26.40
2022-12-16T03:40:09.640Z,26.97
2022-12-16T03:42:43.871Z,31.52
2022-12-16T03:45:21.392Z,25.92
2022-12-16T03:47:57.006Z,26.40
2022-12-16T03:50:35.742Z,27.67
2022-12-16T03:53:09.596Z,24.95
2022-12-16T03:55:42.377Z,26.15
2022-12-16T03:58:15.267Z,27.30
2022-12-16T04:00:48.243Z,36.25
2022-12-16T04:03:23.133Z,40.45
2022-12-16T04:08:27.928Z,93.07
2022-12-16T04:11:17.610Z,55.83
2022-12-16T04:14:08.115Z,40.85
2022-12-16T04:16:59.078Z,54.33
2022-12-16T04:19:53.181Z,49.75
2022-12-16T04:22:48.754Z,59.15
2022-12-16T04:25:25.892Z,64.23
2022-12-16T04:27:58.938Z,53.90
2022-12-16T04:30:35.499Z,60.70
2022-12-16T04:33:31.853Z,45.00
2022-12-16T04:36:23.517Z,43.10
2022-12-16T04:39:14.931Z,35.20
2022-12-16T04:42:07.179Z,36.90
2022-12-16T04:44:57.718Z,35.33
2022-12-16T04:47:51.422Z,40.23
2022-12-16T04:50:40.549Z,39.23
2022-12-16T04:53:32.252Z,33.28
2022-12-16T04:56:23.350Z,27.50
2022-12-16T04:59:14.069Z,26.68
2022-12-16T05:02:04.808Z,23.85
2022-12-16T05:04:55.513Z,28.27
2022-12-16T05:07:46.543Z,26.27
2022-12-16T05:10:23.989Z,33.25
2022-12-16T05:13:15.294Z,31.82
2022-12-16T05:16:06.121Z,31.60
2022-12-16T05:18:56.628Z,33.10
2022-12-16T05:21:47.652Z,33.20
2022-12-16T05:24:38.081Z,28.83
2022-12-16T05:27:28.701Z,34.05
2022-12-16T05:30:19.382Z,45.55
2022-12-16T05:33:10.120Z,37.50
2022-12-16T05:36:01.158Z,34.53
2022-12-16T05:38:51.977Z,54.00
2022-12-16T05:41:42.877Z,48.42
2022-12-16T05:44:33.621Z,42.62
2022-12-16T05:47:24.391Z,33.20
2022-12-16T05:50:15.202Z,35.48
2022-12-16T05:53:11.349Z,39.65
2022-12-16T05:56:03.197Z,42.27
2022-12-16T05:58:54.071Z,38.50
2022-12-16T06:01:44.818Z,30.15
2022-12-16T06:04:35.566Z,34.95
2022-12-16T06:07:26.359Z,42.08
2022-12-16T06:10:16.696Z,40.25
2022-12-16T06:13:07.855Z,38.10
2022-12-16T06:16:02.453Z,35.90
2022-12-16T06:18:51.170Z,38.85
2022-12-16T06:21:41.668Z,27.82
2022-12-16T16:41:40.268Z,54.00
2022-12-16T16:44:32.247Z,61.15
2022-12-16T16:47:23.183Z,56.68
2022-12-16T16:50:19.077Z,43.83
2022-12-16T16:53:06.269Z,52.50
2022-12-16T16:58:50.786Z,43.17
2022-12-16T17:01:41.666Z,45.58
2022-12-16T17:04:32.575Z,48.23
2022-12-16T17:07:23.825Z,39.73
2022-12-16T17:10:14.714Z,36.00
2022-12-16T17:13:05.675Z,39.70
2022-12-16T17:15:57.622Z,39.65
2022-12-16T17:18:52.291Z,47.78
2022-12-16T17:21:40.695Z,35.85
2022-12-16T17:24:31.660Z,30.48
2022-12-16T17:27:41.591Z,31.10
2022-12-16T17:30:44.881Z,41.63
2022-12-16T17:33:32.385Z,38.58
2022-12-16T17:36:27.227Z,36.60
2022-12-16T17:39:15.736Z,33.30
2022-12-16T17:42:06.792Z,35.10
2022-12-16T17:44:57.354Z,35.70
2022-12-16T17:47:48.498Z,31.25
2022-12-16T17:50:39.910Z,39.53
2022-12-16T17:53:30.397Z,37.42
2022-12-16T17:56:25.343Z,44.55
2022-12-16T17:59:18.547Z,37.20
2022-12-16T18:02:09.404Z,34.67
2022-12-16T18:05:00.891Z,31.57
2022-12-16T18:07:51.462Z,33.35
2022-12-16T18:10:42.100Z,33.55
2022-12-16T18:13:33.064Z,31.95
2022-12-16T18:16:24.382Z,47.00
2022-12-16T18:18:58.846Z,54.53
2022-12-16T18:21:51.007Z,37.45
2022-12-16T18:24:46.691Z,41.23
2022-12-16T18:27:34.864Z,36.45
2022-12-16T18:30:27.723Z,32.67
2022-12-16T18:33:18.867Z,38.70
2022-12-16T18:36:10.097Z,32.48
2022-12-16T18:39:00.944Z,29.82
2022-12-16T18:41:52.393Z,30.95
2022-12-16T18:44:43.039Z,31.70
2022-12-16T18:47:33.469Z,30.95
2022-12-16T18:50:30.427Z,42.62
2022-12-16T18:53:13.733Z,31.68
2022-12-16T18:56:04.887Z,38.63
2022-12-16T18:58:55.833Z,35.45
2022-12-16T19:01:46.338Z,37.93
2022-12-16T19:04:36.749Z,38.75
2022-12-16T19:07:27.507Z,33.92
2022-12-16T19:10:19.832Z,30.97
2022-12-16T19:13:11.930Z,32.65
2022-12-16T19:16:05.254Z,30.95
2022-12-16T19:18:42.286Z,25.43
2022-12-16T19:21:32.816Z,30.32
2022-12-16T19:24:23.557Z,31.37
2022-12-16T19:27:15.630Z,30.37
2022-12-16T19:30:07.408Z,25.70
2022-12-16T19:32:58.403Z,27.80
2022-12-16T19:35:49.033Z,25.72
2022-12-16T19:38:39.893Z,24.15
2022-12-16T19:41:38.339Z,26.37
2022-12-16T19:44:28.735Z,25.57
2022-12-16T19:47:19.792Z,23.27
2022-12-16T19:50:10.656Z,26.17
2022-12-16T19:53:02.084Z,27.20
2022-12-16T19:55:52.678Z,30.97
2022-12-16T19:58:44.236Z,42.23
2022-12-16T20:01:34.943Z,45.55
2022-12-16T20:04:25.837Z,51.42
2022-12-16T20:07:20.201Z,44.63
2022-12-16T20:10:08.508Z,36.23
2022-12-16T20:13:00.780Z,31.07
2022-12-16T20:15:51.894Z,33.25
2022-12-16T20:18:42.951Z,33.83
2022-12-16T20:21:33.903Z,30.20
2022-12-16T20:24:24.772Z,26.20
2022-12-16T20:27:15.385Z,21.57
2022-12-16T20:30:05.994Z,22.48
2022-12-16T20:32:56.974Z,20.45
2022-12-16T20:35:47.648Z,22.48
2022-12-16T20:38:38.225Z,19.70
2022-12-16T20:41:28.863Z,20.82
2022-12-16T20:44:19.318Z,21.57
2022-12-16T20:47:10.810Z,22.02
2022-12-16T20:50:02.274Z,21.37
2022-12-16T20:52:53.345Z,19.30
2022-12-16T20:55:45.786Z,21.85
2022-12-16T20:58:40.265Z,19.27
2022-12-16T21:01:30.928Z,17.73
2022-12-16T21:04:21.879Z,19.02
2022-12-16T21:07:15.228Z,16.80
2022-12-16T21:10:06.659Z,15.93
2022-12-16T21:14:42.849Z,14.55
2022-12-16T21:15:52.817Z,22.65
2022-12-16T21:18:45.266Z,12.68
2022-12-16T21:21:19.942Z,13.45
2022-12-16T21:27:00.157Z,12.80
2022-12-16T21:29:52.939Z,12.65
2022-12-16T21:32:45.495Z,11.30
2022-12-16T21:35:38.013Z,10.78
2022-12-16T21:38:30.468Z,11.53
2022-12-16T21:41:21.329Z,11.00
2022-12-16T21:44:14.612Z,9.20
2022-12-16T21:46:51.933Z,12.30
2022-12-16T21:49:43.145Z,11.88
2022-12-16T21:52:33.816Z,12.43
2022-12-16T21:55:25.622Z,11.18
2022-12-16T21:58:16.266Z,14.58
2022-12-16T22:01:15.690Z,13.18
2022-12-16T22:04:06.028Z,12.50
2022-12-16T22:06:56.500Z,14.25
2022-12-16T22:09:46.793Z,13.05
2022-12-16T22:12:37.246Z,13.03
2022-12-16T22:15:28.832Z,12.88
2022-12-16T22:18:19.230Z,12.25
2022-12-16T22:21:19.570Z,13.88
2022-12-16T22:24:10.447Z,12.82
2022-12-16T22:27:01.116Z,16.77
2022-12-16T22:29:53.454Z,13.60
2022-12-16T22:32:45.779Z,13.03
2022-12-16T22:35:36.511Z,14.70
2022-12-16T22:38:27.187Z,14.33
2022-12-16T22:41:20.160Z,16.12
2022-12-16T22:44:10.920Z,15.23
2022-12-16T22:47:01.630Z,14.68
2022-12-16T22:49:52.379Z,12.13
2022-12-16T22:52:44.451Z,13.15
2022-12-16T22:55:35.260Z,16.27
2022-12-16T22:58:30.759Z,17.52
2022-12-16T23:01:21.614Z,17.45
2022-12-16T23:04:12.381Z,20.55
2022-12-16T23:07:03.426Z,24.00
2022-12-16T23:09:54.223Z,26.97
2022-12-16T23:12:46.471Z,24.52
2022-12-16T23:15:37.199Z,24.45
2022-12-16T23:18:28.445Z,15.78
2022-12-16T23:21:19.200Z,16.37
2022-12-16T23:24:13.137Z,18.10
2022-12-16T23:27:04.427Z,16.37
2022-12-16T23:29:56.770Z,12.95
2022-12-16T23:32:48.289Z,12.20
2022-12-16T23:35:39.117Z,12.60
2022-12-16T23:38:30.579Z,13.70
2022-12-16T23:41:21.530Z,15.63
2022-12-16T23:44:12.164Z,12.33
2022-12-16T23:47:02.623Z,16.75
2022-12-16T23:49:53.742Z,13.78
2022-12-16T23:52:45.930Z,14.60
2022-12-16T23:55:36.429Z,13.78
2022-12-16T23:58:28.069Z,15.48
